sensor_id;sensor_type;location;lat;lon;timestamp;pressure;altitude;pressure_sealevel;temperature;humidity
3434;BME280;1730;41.932;25.548;2023-10-31T00:00:16;100095.66;;;12.71;100.00
3434;BME280;1730;41.932;25.548;2023-10-31T00:02:42;100111.78;;;12.63;100.00
3434;BME280;1730;41.932;25.548;2023-10-31T00:05:07;100109.97;;;12.54;100.00
3434;BME280;1730;41.932;25.548;2023-10-31T00:07:33;100119.94;;;12.44;100.00
3434;BME280;1730;41.932;25.548;2023-10-31T00:09:58;100131.66;;;12.35;100.00
3434;BME280;1730;41.932;25.548;2023-10-31T00:12:24;100145.59;;;12.40;100.00
3434;BME280;1730;41.932;25.548;2023-10-31T00:14:49;100154.84;;;12.37;100.00
3434;BME280;1730;41.932;25.548;2023-10-31T00:17:15;100157.97;;;12.42;100.00
3434;BME280;1730;41.932;25.548;2023-10-31T00:19:40;100156.03;;;12.72;100.00
3434;BME280;1730;41.932;25.548;2023-10-31T00:22:06;100126.75;;;12.57;100.00
3434;BME280;1730;41.932;25.548;2023-10-31T00:24:31;100117.81;;;12.38;100.00
3434;BME280;1730;41.932;25.548;2023-10-31T00:26:57;100094.84;;;12.05;100.00
3434;BME280;1730;41.932;25.548;2023-10-31T00:29:23;100166.81;;;12.35;100.00
3434;BME280;1730;41.932;25.548;2023-10-31T00:31:48;100163.13;;;12.26;100.00
3434;BME280;1730;41.932;25.548;2023-10-31T00:34:14;100167.84;;;12.14;100.00
3434;BME280;1730;41.932;25.548;2023-10-31T00:36:40;100187.03;;;12.11;100.00
3434;BME280;1730;41.932;25.548;2023-10-31T00:39:05;100195.16;;;12.02;100.00
3434;BME280;1730;41.932;25.548;2023-10-31T00:41:31;100204.38;;;11.99;100.00
3434;BME280;1730;41.932;25.548;2023-10-31T00:43:56;100146.84;;;11.59;100.00
3434;BME280;1730;41.932;25.548;2023-10-31T00:46:22;100211.19;;;11.94;100.00
3434;BME280;1730;41.932;25.548;2023-10-31T00:48:47;100221.75;;;11.97;100.00
3434;BME280;1730;41.932;25.548;2023-10-31T00:51:13;100220.06;;;12.05;100.00
3434;BME280;1730;41.932;25.548;2023-10-31T00:53:39;100213.47;;;11.98;100.00
3434;BME280;1730;41.932;25.548;2023-10-31T00:56:05;100221.59;;;11.89;100.00
3434;BME280;1730;41.932;25.548;2023-10-31T00:58:30;100213.75;;;11.76;100.00
3434;BME280;1730;41.932;25.548;2023-10-31T01:00:56;100252.44;;;11.86;100.00
3434;BME280;1730;41.932;25.548;2023-10-31T01:03:21;100263.69;;;11.91;100.00
3434;BME280;1730;41.932;25.548;2023-10-31T01:05:47;100225.28;;;11.78;100.00
3434;BME280;1730;41.932;25.548;2023-10-31T01:08:12;100126.72;;;11.04;100.00
3434;BME280;1730;41.932;25.548;2023-10-31T01:10:38;100183.72;;;11.20;100.00
3434;BME280;1730;41.932;25.548;2023-10-31T01:13:03;100275.38;;;11.52;100.00
3434;BME280;1730;41.932;25.548;2023-10-31T01:15:29;100301.56;;;11.61;100.00
3434;BME280;1730;41.932;25.548;2023-10-31T01:17:55;100265.38;;;11.43;100.00
3434;BME280;1730;41.932;25.548;2023-10-31T01:20:20;100296.12;;;11.51;100.00
3434;BME280;1730;41.932;25.548;2023-10-31T01:22:47;100296.25;;;11.50;100.00
3434;BME280;1730;41.932;25.548;2023-10-31T01:25:12;100314.50;;;11.57;100.00
3434;BME280;1730;41.932;25.548;2023-10-31T01:27:37;100302.31;;;11.42;100.00
3434;BME280;1730;41.932;25.548;2023-10-31T01:30:03;100318.63;;;11.31;100.00
3434;BME280;1730;41.932;25.548;2023-10-31T01:32:29;100303.31;;;11.11;100.00
3434;BME280;1730;41.932;25.548;2023-10-31T01:34:54;100352.53;;;11.24;100.00
3434;BME280;1730;41.932;25.548;2023-10-31T01:37:20;100373.94;;;11.37;100.00
3434;BME280;1730;41.932;25.548;2023-10-31T01:39:46;100380.19;;;11.37;100.00
3434;BME280;1730;41.932;25.548;2023-10-31T01:42:16;100383.22;;;11.44;100.00
3434;BME280;1730;41.932;25.548;2023-10-31T01:44:42;100383.63;;;11.39;100.00
3434;BME280;1730;41.932;25.548;2023-10-31T01:47:07;100338.00;;;10.95;100.00
3434;BME280;1730;41.932;25.548;2023-10-31T01:49:34;100376.81;;;11.14;100.00
3434;BME280;1730;41.932;25.548;2023-10-31T01:52:01;100390.22;;;11.05;100.00
3434;BME280;1730;41.932;25.548;2023-10-31T01:54:27;100392.53;;;11.09;100.00
3434;BME280;1730;41.932;25.548;2023-10-31T01:56:55;100400.66;;;11.19;100.00
3434;BME280;1730;41.932;25.548;2023-10-31T01:59:27;100404.91;;;11.12;100.00
3434;BME280;1730;41.932;25.548;2023-10-31T02:01:53;100406.63;;;11.13;100.00
3434;BME280;1730;41.932;25.548;2023-10-31T02:04:20;100382.06;;;10.95;100.00
3434;BME280;1730;41.932;25.548;2023-10-31T02:06:45;100378.63;;;11.14;100.00
3434;BME280;1730;41.932;25.548;2023-10-31T02:09:11;100341.22;;;10.89;100.00
3434;BME280;1730;41.932;25.548;2023-10-31T02:11:37;100324.84;;;10.80;100.00
3434;BME280;1730;41.932;25.548;2023-10-31T02:14:02;100294.91;;;10.83;100.00
3434;BME280;1730;41.932;25.548;2023-10-31T02:16:28;100281.44;;;10.83;100.00
3434;BME280;1730;41.932;25.548;2023-10-31T02:18:53;100258.00;;;10.63;100.00
3434;BME280;1730;41.932;25.548;2023-10-31T02:21:20;100307.47;;;10.94;100.00
3434;BME280;1730;41.932;25.548;2023-10-31T02:23:59;100272.31;;;10.84;100.00
3434;BME280;1730;41.932;25.548;2023-10-31T02:26:32;100312.25;;;11.11;100.00
3434;BME280;1730;41.932;25.548;2023-10-31T02:28:58;100253.63;;;10.93;100.00
3434;BME280;1730;41.932;25.548;2023-10-31T02:31:25;100274.91;;;10.86;100.00
3434;BME280;1730;41.932;25.548;2023-10-31T02:33:50;100204.78;;;10.45;100.00
3434;BME280;1730;41.932;25.548;2023-10-31T02:36:16;100252.34;;;10.66;100.00
3434;BME280;1730;41.932;25.548;2023-10-31T02:38:42;100256.03;;;10.65;100.00
3434;BME280;1730;41.932;25.548;2023-10-31T02:41:07;100221.06;;;10.22;100.00
3434;BME280;1730;41.932;25.548;2023-10-31T02:43:33;100271.47;;;10.43;100.00
3434;BME280;1730;41.932;25.548;2023-10-31T02:45:59;100335.72;;;10.69;100.00
3434;BME280;1730;41.932;25.548;2023-10-31T02:48:25;100355.75;;;10.56;100.00
3434;BME280;1730;41.932;25.548;2023-10-31T02:50:51;100357.97;;;10.51;100.00
3434;BME280;1730;41.932;25.548;2023-10-31T02:53:18;100417.09;;;10.74;100.00
3434;BME280;1730;41.932;25.548;2023-10-31T02:55:44;100428.75;;;10.75;100.00
3434;BME280;1730;41.932;25.548;2023-10-31T02:58:09;100418.03;;;10.53;100.00
3434;BME280;1730;41.932;25.548;2023-10-31T03:00:36;100335.53;;;9.96;100.00
3434;BME280;1730;41.932;25.548;2023-10-31T03:03:01;100406.41;;;10.41;100.00
3434;BME280;1730;41.932;25.548;2023-10-31T03:05:27;100424.44;;;10.29;100.00
3434;BME280;1730;41.932;25.548;2023-10-31T03:07:53;100409.84;;;10.10;100.00
3434;BME280;1730;41.932;25.548;2023-10-31T03:10:20;100468.19;;;10.44;100.00
3434;BME280;1730;41.932;25.548;2023-10-31T03:12:45;100479.94;;;10.43;100.00
3434;BME280;1730;41.932;25.548;2023-10-31T03:15:11;100509.06;;;10.71;100.00
3434;BME280;1730;41.932;25.548;2023-10-31T03:17:37;100458.09;;;10.57;100.00
3434;BME280;1730;41.932;25.548;2023-10-31T03:20:03;100443.66;;;10.47;100.00
3434;BME280;1730;41.932;25.548;2023-10-31T03:22:28;100490.53;;;10.78;100.00
3434;BME280;1730;41.932;25.548;2023-10-31T03:24:54;100487.28;;;10.95;100.00
3434;BME280;1730;41.932;25.548;2023-10-31T03:27:19;100472.66;;;10.98;100.00
3434;BME280;1730;41.932;25.548;2023-10-31T03:29:45;100426.87;;;11.07;100.00
3434;BME280;1730;41.932;25.548;2023-10-31T03:32:11;100395.41;;;10.97;100.00
3434;BME280;1730;41.932;25.548;2023-10-31T03:34:37;100379.06;;;10.98;100.00
3434;BME280;1730;41.932;25.548;2023-10-31T03:37:06;100377.09;;;11.21;100.00
3434;BME280;1730;41.932;25.548;2023-10-31T03:39:32;100366.59;;;11.18;100.00
3434;BME280;1730;41.932;25.548;2023-10-31T03:41:57;100360.25;;;11.28;100.00
3434;BME280;1730;41.932;25.548;2023-10-31T03:44:23;100334.59;;;11.13;100.00
3434;BME280;1730;41.932;25.548;2023-10-31T03:46:48;100294.72;;;10.96;100.00
3434;BME280;1730;41.932;25.548;2023-10-31T03:49:13;100289.34;;;11.06;100.00
3434;BME280;1730;41.932;25.548;2023-10-31T03:51:39;100324.72;;;11.54;100.00
3434;BME280;1730;41.932;25.548;2023-10-31T03:54:04;100285.84;;;11.45;100.00
3434;BME280;1730;41.932;25.548;2023-10-31T03:56:30;100239.88;;;11.26;100.00
3434;BME280;1730;41.932;25.548;2023-10-31T03:58:56;100270.34;;;11.38;100.00
3434;BME280;1730;41.932;25.548;2023-10-31T04:01:21;100260.25;;;11.40;100.00
3434;BME280;1730;41.932;25.548;2023-10-31T04:03:50;100231.13;;;11.43;100.00
3434;BME280;1730;41.932;25.548;2023-10-31T04:06:15;100213.16;;;11.23;100.00
3434;BME280;1730;41.932;25.548;2023-10-31T04:08:41;100189.66;;;11.04;100.00
3434;BME280;1730;41.932;25.548;2023-10-31T04:11:06;100138.97;;;10.77;100.00
3434;BME280;1730;41.932;25.548;2023-10-31T04:13:32;100202.38;;;11.23;100.00
3434;BME280;1730;41.932;25.548;2023-10-31T04:15:57;100187.22;;;11.01;100.00
3434;BME280;1730;41.932;25.548;2023-10-31T04:18:24;100179.84;;;10.73;100.00
3434;BME280;1730;41.932;25.548;2023-10-31T04:20:49;100215.50;;;10.76;100.00
3434;BME280;1730;41.932;25.548;2023-10-31T04:23:15;100235.44;;;10.64;100.00
3434;BME280;1730;41.932;25.548;2023-10-31T04:25:40;100217.34;;;10.34;100.00
3434;BME280;1730;41.932;25.548;2023-10-31T04:28:06;100261.00;;;10.49;100.00
3434;BME280;1730;41.932;25.548;2023-10-31T04:30:33;100285.16;;;10.51;100.00
3434;BME280;1730;41.932;25.548;2023-10-31T04:32:58;100294.41;;;10.37;100.00
3434;BME280;1730;41.932;25.548;2023-10-31T04:35:24;100311.25;;;10.29;100.00
3434;BME280;1730;41.932;25.548;2023-10-31T04:37:50;100297.06;;;10.16;100.00
3434;BME280;1730;41.932;25.548;2023-10-31T04:40:16;100336.59;;;10.27;100.00
3434;BME280;1730;41.932;25.548;2023-10-31T04:42:41;100343.19;;;10.34;100.00
3434;BME280;1730;41.932;25.548;2023-10-31T04:45:07;100347.00;;;10.31;100.00
3434;BME280;1730;41.932;25.548;2023-10-31T04:47:33;100331.56;;;10.22;100.00
3434;BME280;1730;41.932;25.548;2023-10-31T04:49:58;100246.47;;;9.77;100.00
3434;BME280;1730;41.932;25.548;2023-10-31T04:52:24;100209.94;;;9.41;100.00
3434;BME280;1730;41.932;25.548;2023-10-31T04:54:51;100297.00;;;9.95;100.00
3434;BME280;1730;41.932;25.548;2023-10-31T04:57:16;100213.22;;;9.44;100.00
3434;BME280;1730;41.932;25.548;2023-10-31T04:59:42;100313.38;;;10.04;100.00
3434;BME280;1730;41.932;25.548;2023-10-31T05:02:07;100318.72;;;10.15;100.00
3434;BME280;1730;41.932;25.548;2023-10-31T05:04:33;100318.13;;;10.11;100.00
3434;BME280;1730;41.932;25.548;2023-10-31T05:06:58;100246.56;;;9.75;100.00
3434;BME280;1730;41.932;25.548;2023-10-31T05:09:24;100311.28;;;10.07;100.00
3434;BME280;1730;41.932;25.548;2023-10-31T05:11:49;100311.91;;;10.00;100.00
3434;BME280;1730;41.932;25.548;2023-10-31T05:14:16;100264.09;;;9.70;100.00
3434;BME280;1730;41.932;25.548;2023-10-31T05:16:44;100284.87;;;9.79;100.00
3434;BME280;1730;41.932;25.548;2023-10-31T05:19:10;100354.00;;;10.12;100.00
3434;BME280;1730;41.932;25.548;2023-10-31T05:21:35;100353.50;;;10.29;100.00
3434;BME280;1730;41.932;25.548;2023-10-31T05:24:01;100359.16;;;10.58;100.00
3434;BME280;1730;41.932;25.548;2023-10-31T05:26:27;100326.72;;;10.48;100.00
3434;BME280;1730;41.932;25.548;2023-10-31T05:28:55;100290.63;;;10.39;100.00
3434;BME280;1730;41.932;25.548;2023-10-31T05:31:21;100292.13;;;10.53;100.00
3434;BME280;1730;41.932;25.548;2023-10-31T05:33:47;100259.62;;;10.55;100.00
3434;BME280;1730;41.932;25.548;2023-10-31T05:36:23;100198.28;;;10.47;100.00
3434;BME280;1730;41.932;25.548;2023-10-31T05:38:48;100200.03;;;10.78;100.00
3434;BME280;1730;41.932;25.548;2023-10-31T05:41:16;100180.19;;;10.89;100.00
3434;BME280;1730;41.932;25.548;2023-10-31T05:43:41;100087.63;;;10.58;100.00
3434;BME280;1730;41.932;25.548;2023-10-31T05:46:07;100107.06;;;10.82;100.00
3434;BME280;1730;41.932;25.548;2023-10-31T05:48:44;100067.72;;;10.50;100.00
3434;BME280;1730;41.932;25.548;2023-10-31T05:51:15;100105.63;;;10.78;100.00
3434;BME280;1730;41.932;25.548;2023-10-31T05:53:42;100119.28;;;10.87;100.00
3434;BME280;1730;41.932;25.548;2023-10-31T05:56:09;100102.91;;;11.18;100.00
3434;BME280;1730;41.932;25.548;2023-10-31T05:58:36;100088.28;;;11.30;100.00
3434;BME280;1730;41.932;25.548;2023-10-31T06:01:02;100045.38;;;11.27;100.00
3434;BME280;1730;41.932;25.548;2023-10-31T06:03:27;100040.81;;;11.66;100.00
3434;BME280;1730;41.932;25.548;2023-10-31T06:05:53;100020.16;;;11.94;100.00
3434;BME280;1730;41.932;25.548;2023-10-31T06:08:18;99974.41;;;11.54;100.00
3434;BME280;1730;41.932;25.548;2023-10-31T06:10:44;99955.91;;;11.69;100.00
3434;BME280;1730;41.932;25.548;2023-10-31T06:13:09;99959.69;;;12.05;100.00
3434;BME280;1730;41.932;25.548;2023-10-31T06:15:35;99928.25;;;12.04;100.00
3434;BME280;1730;41.932;25.548;2023-10-31T06:18:02;99899.59;;;12.38;100.00
3434;BME280;1730;41.932;25.548;2023-10-31T06:20:29;99907.75;;;12.56;100.00
3434;BME280;1730;41.932;25.548;2023-10-31T06:22:55;99903.19;;;12.56;100.00
3434;BME280;1730;41.932;25.548;2023-10-31T06:25:20;99846.28;;;12.31;100.00
3434;BME280;1730;41.932;25.548;2023-10-31T06:27:46;99882.50;;;13.00;100.00
3434;BME280;1730;41.932;25.548;2023-10-31T06:30:12;99859.03;;;13.09;100.00
3434;BME280;1730;41.932;25.548;2023-10-31T06:32:38;99804.59;;;13.12;100.00
3434;BME280;1730;41.932;25.548;2023-10-31T06:35:06;99818.03;;;13.47;100.00
3434;BME280;1730;41.932;25.548;2023-10-31T06:37:32;99776.78;;;13.28;100.00
3434;BME280;1730;41.932;25.548;2023-10-31T06:39:57;99798.19;;;13.73;100.00
3434;BME280;1730;41.932;25.548;2023-10-31T06:42:22;99790.75;;;13.83;100.00
3434;BME280;1730;41.932;25.548;2023-10-31T06:44:48;99770.81;;;13.92;100.00
3434;BME280;1730;41.932;25.548;2023-10-31T06:47:13;99777.22;;;13.91;100.00
3434;BME280;1730;41.932;25.548;2023-10-31T06:49:39;99757.06;;;14.52;100.00
3434;BME280;1730;41.932;25.548;2023-10-31T06:52:05;99720.44;;;14.64;100.00
3434;BME280;1730;41.932;25.548;2023-10-31T06:54:31;99688.84;;;14.87;100.00
3434;BME280;1730;41.932;25.548;2023-10-31T06:56:57;99661.66;;;14.95;100.00
3434;BME280;1730;41.932;25.548;2023-10-31T06:59:23;99642.72;;;15.26;100.00
3434;BME280;1730;41.932;25.548;2023-10-31T07:01:48;99598.38;;;15.64;100.00
3434;BME280;1730;41.932;25.548;2023-10-31T07:04:14;99520.47;;;15.49;100.00
3434;BME280;1730;41.932;25.548;2023-10-31T07:06:39;99538.19;;;15.90;100.00
3434;BME280;1730;41.932;25.548;2023-10-31T07:09:05;99523.03;;;16.10;100.00
3434;BME280;1730;41.932;25.548;2023-10-31T07:11:31;99486.34;;;15.92;100.00
3434;BME280;1730;41.932;25.548;2023-10-31T07:14:01;99501.22;;;16.48;100.00
3434;BME280;1730;41.932;25.548;2023-10-31T07:16:28;99491.19;;;16.63;100.00
3434;BME280;1730;41.932;25.548;2023-10-31T07:18:54;99490.44;;;16.84;100.00
3434;BME280;1730;41.932;25.548;2023-10-31T07:21:20;99491.56;;;16.89;100.00
3434;BME280;1730;41.932;25.548;2023-10-31T07:23:45;99501.22;;;16.77;100.00
3434;BME280;1730;41.932;25.548;2023-10-31T07:26:11;99492.81;;;17.08;100.00
3434;BME280;1730;41.932;25.548;2023-10-31T07:28:36;99475.19;;;17.46;100.00
3434;BME280;1730;41.932;25.548;2023-10-31T07:31:02;99465.28;;;17.39;100.00
3434;BME280;1730;41.932;25.548;2023-10-31T07:33:28;99444.28;;;17.82;100.00
3434;BME280;1730;41.932;25.548;2023-10-31T07:35:53;99424.09;;;18.04;100.00
3434;BME280;1730;41.932;25.548;2023-10-31T07:38:18;99412.47;;;18.23;100.00
3434;BME280;1730;41.932;25.548;2023-10-31T07:40:45;99336.25;;;17.81;100.00
3434;BME280;1730;41.932;25.548;2023-10-31T07:43:11;99388.84;;;18.43;100.00
3434;BME280;1730;41.932;25.548;2023-10-31T07:45:36;99374.34;;;18.43;100.00
3434;BME280;1730;41.932;25.548;2023-10-31T07:48:02;99368.44;;;18.87;100.00
3434;BME280;1730;41.932;25.548;2023-10-31T07:50:28;99219.03;;;18.14;100.00
3434;BME280;1730;41.932;25.548;2023-10-31T07:52:53;99349.97;;;19.09;100.00
3434;BME280;1730;41.932;25.548;2023-10-31T07:55:19;99268.81;;;18.76;100.00
3434;BME280;1730;41.932;25.548;2023-10-31T07:57:44;99242.31;;;18.64;100.00
3434;BME280;1730;41.932;25.548;2023-10-31T08:00:12;99317.00;;;19.50;100.00
3434;BME280;1730;41.932;25.548;2023-10-31T08:02:38;99285.00;;;19.37;100.00
3434;BME280;1730;41.932;25.548;2023-10-31T08:05:03;99297.22;;;19.61;100.00
3434;BME280;1730;41.932;25.548;2023-10-31T08:07:29;99278.63;;;19.89;100.00
3434;BME280;1730;41.932;25.548;2023-10-31T08:09:56;99294.19;;;19.89;100.00
3434;BME280;1730;41.932;25.548;2023-10-31T08:12:22;99189.53;;;19.29;100.00
3434;BME280;1730;41.932;25.548;2023-10-31T08:14:48;99277.41;;;19.78;100.00
3434;BME280;1730;41.932;25.548;2023-10-31T08:17:13;99273.12;;;19.96;100.00
3434;BME280;1730;41.932;25.548;2023-10-31T08:19:39;99243.09;;;20.27;100.00
3434;BME280;1730;41.932;25.548;2023-10-31T08:22:04;99261.44;;;20.20;100.00
3434;BME280;1730;41.932;25.548;2023-10-31T08:24:30;99220.28;;;19.95;100.00
3434;BME280;1730;41.932;25.548;2023-10-31T08:26:57;99262.37;;;20.01;100.00
3434;BME280;1730;41.932;25.548;2023-10-31T08:29:23;99255.69;;;20.41;100.00
3434;BME280;1730;41.932;25.548;2023-10-31T08:31:49;99254.53;;;20.17;100.00
3434;BME280;1730;41.932;25.548;2023-10-31T08:34:14;99249.19;;;20.36;100.00
3434;BME280;1730;41.932;25.548;2023-10-31T08:36:40;99242.25;;;20.71;100.00
3434;BME280;1730;41.932;25.548;2023-10-31T08:39:06;99226.75;;;20.83;100.00
3434;BME280;1730;41.932;25.548;2023-10-31T08:41:32;99205.88;;;20.57;100.00
3434;BME280;1730;41.932;25.548;2023-10-31T08:43:58;99221.94;;;20.79;100.00
3434;BME280;1730;41.932;25.548;2023-10-31T08:46:25;99218.97;;;21.05;100.00
3434;BME280;1730;41.932;25.548;2023-10-31T08:48:50;99206.19;;;21.24;100.00
3434;BME280;1730;41.932;25.548;2023-10-31T08:51:15;99185.91;;;20.75;100.00
3434;BME280;1730;41.932;25.548;2023-10-31T08:53:41;99207.94;;;20.87;100.00
3434;BME280;1730;41.932;25.548;2023-10-31T08:56:07;99197.47;;;20.77;100.00
3434;BME280;1730;41.932;25.548;2023-10-31T08:58:32;99183.13;;;20.50;100.00
3434;BME280;1730;41.932;25.548;2023-10-31T09:00:58;99109.22;;;20.44;100.00
3434;BME280;1730;41.932;25.548;2023-10-31T09:03:24;99186.13;;;20.98;100.00
3434;BME280;1730;41.932;25.548;2023-10-31T09:05:49;99186.94;;;20.49;100.00
3434;BME280;1730;41.932;25.548;2023-10-31T09:08:15;99117.56;;;20.55;100.00
3434;BME280;1730;41.932;25.548;2023-10-31T09:10:40;99118.78;;;20.59;100.00
3434;BME280;1730;41.932;25.548;2023-10-31T09:13:08;99171.97;;;21.26;100.00
3434;BME280;1730;41.932;25.548;2023-10-31T09:15:33;99164.19;;;21.59;100.00
3434;BME280;1730;41.932;25.548;2023-10-31T09:17:59;99157.22;;;21.45;100.00
3434;BME280;1730;41.932;25.548;2023-10-31T09:20:24;99156.50;;;21.32;100.00
3434;BME280;1730;41.932;25.548;2023-10-31T09:22:50;99135.31;;;21.21;100.00
3434;BME280;1730;41.932;25.548;2023-10-31T09:25:16;99149.28;;;21.19;100.00
3434;BME280;1730;41.932;25.548;2023-10-31T09:27:41;99065.63;;;21.03;100.00
3434;BME280;1730;41.932;25.548;2023-10-31T09:30:07;99133.31;;;21.82;100.00
3434;BME280;1730;41.932;25.548;2023-10-31T09:32:33;99086.13;;;21.74;100.00
3434;BME280;1730;41.932;25.548;2023-10-31T09:34:58;99119.53;;;21.71;100.00
3434;BME280;1730;41.932;25.548;2023-10-31T09:37:24;98976.00;;;21.04;100.00
3434;BME280;1730;41.932;25.548;2023-10-31T09:39:49;99052.06;;;21.63;100.00
3434;BME280;1730;41.932;25.548;2023-10-31T09:42:15;98842.50;;;20.20;100.00
3434;BME280;1730;41.932;25.548;2023-10-31T09:44:40;98843.94;;;20.59;100.00
3434;BME280;1730;41.932;25.548;2023-10-31T09:47:06;99108.41;;;22.25;100.00
3434;BME280;1730;41.932;25.548;2023-10-31T09:49:32;99101.50;;;22.76;100.00
3434;BME280;1730;41.932;25.548;2023-10-31T09:51:57;99075.19;;;22.68;100.00
3434;BME280;1730;41.932;25.548;2023-10-31T09:54:25;98789.28;;;20.34;100.00
3434;BME280;1730;41.932;25.548;2023-10-31T09:56:51;99061.88;;;22.65;100.00
3434;BME280;1730;41.932;25.548;2023-10-31T09:59:16;99065.94;;;22.39;100.00
3434;BME280;1730;41.932;25.548;2023-10-31T10:01:42;99032.87;;;22.81;100.00
3434;BME280;1730;41.932;25.548;2023-10-31T10:04:08;99052.56;;;23.24;100.00
3434;BME280;1730;41.932;25.548;2023-10-31T10:06:34;99039.91;;;23.12;100.00
3434;BME280;1730;41.932;25.548;2023-10-31T10:09:00;99032.06;;;23.32;100.00
3434;BME280;1730;41.932;25.548;2023-10-31T10:11:28;98969.22;;;23.01;100.00
3434;BME280;1730;41.932;25.548;2023-10-31T10:13:54;99002.81;;;23.14;100.00
3434;BME280;1730;41.932;25.548;2023-10-31T10:16:32;99017.06;;;23.40;100.00
3434;BME280;1730;41.932;25.548;2023-10-31T10:19:18;98923.66;;;23.05;100.00
3434;BME280;1730;41.932;25.548;2023-10-31T10:21:53;98996.03;;;23.45;100.00
3434;BME280;1730;41.932;25.548;2023-10-31T10:24:20;98995.72;;;23.87;100.00
3434;BME280;1730;41.932;25.548;2023-10-31T10:26:46;98980.19;;;23.97;100.00
3434;BME280;1730;41.932;25.548;2023-10-31T10:29:12;98870.50;;;23.44;100.00
3434;BME280;1730;41.932;25.548;2023-10-31T10:31:38;98968.75;;;23.89;100.00
3434;BME280;1730;41.932;25.548;2023-10-31T10:34:03;98891.31;;;23.85;100.00
3434;BME280;1730;41.932;25.548;2023-10-31T10:36:31;98962.47;;;24.21;100.00
3434;BME280;1730;41.932;25.548;2023-10-31T10:38:59;98940.72;;;24.08;100.00
3434;BME280;1730;41.932;25.548;2023-10-31T10:41:27;98921.41;;;23.92;100.00
3434;BME280;1730;41.932;25.548;2023-10-31T10:44:04;98910.47;;;24.13;100.00
3434;BME280;1730;41.932;25.548;2023-10-31T10:46:34;98949.63;;;24.65;100.00
3434;BME280;1730;41.932;25.548;2023-10-31T10:49:04;98930.38;;;24.32;100.00
3434;BME280;1730;41.932;25.548;2023-10-31T10:51:48;98935.03;;;24.48;100.00
3434;BME280;1730;41.932;25.548;2023-10-31T10:54:53;98909.41;;;23.98;100.00
3434;BME280;1730;41.932;25.548;2023-10-31T10:57:44;98932.56;;;24.68;100.00
3434;BME280;1730;41.932;25.548;2023-10-31T11:00:14;98926.50;;;24.50;100.00
3434;BME280;1730;41.932;25.548;2023-10-31T11:02:40;98904.13;;;24.68;100.00
3434;BME280;1730;41.932;25.548;2023-10-31T11:05:09;98908.44;;;24.81;100.00
3434;BME280;1730;41.932;25.548;2023-10-31T11:07:37;98912.03;;;24.81;100.00
3434;BME280;1730;41.932;25.548;2023-10-31T11:10:04;98903.72;;;24.98;100.00
3434;BME280;1730;41.932;25.548;2023-10-31T11:12:31;98717.72;;;23.80;100.00
3434;BME280;1730;41.932;25.548;2023-10-31T11:14:58;98895.03;;;24.67;100.00
3434;BME280;1730;41.932;25.548;2023-10-31T11:17:47;98612.25;;;23.03;100.00
3434;BME280;1730;41.932;25.548;2023-10-31T11:20:13;98875.94;;;24.83;100.00
3434;BME280;1730;41.932;25.548;2023-10-31T11:22:41;98868.91;;;24.92;100.00
3434;BME280;1730;41.932;25.548;2023-10-31T11:25:10;98875.50;;;24.91;100.00
3434;BME280;1730;41.932;25.548;2023-10-31T11:27:35;98738.91;;;24.18;100.00
3434;BME280;1730;41.932;25.548;2023-10-31T11:30:05;98764.09;;;24.48;100.00
3434;BME280;1730;41.932;25.548;2023-10-31T11:32:32;98848.03;;;25.01;100.00
3434;BME280;1730;41.932;25.548;2023-10-31T11:35:25;98834.25;;;25.33;100.00
3434;BME280;1730;41.932;25.548;2023-10-31T11:38:10;98845.91;;;25.08;100.00
3434;BME280;1730;41.932;25.548;2023-10-31T11:41:00;98842.19;;;25.24;100.00
3434;BME280;1730;41.932;25.548;2023-10-31T11:43:36;98815.91;;;25.17;100.00
3434;BME280;1730;41.932;25.548;2023-10-31T11:46:02;98719.38;;;24.68;100.00
3434;BME280;1730;41.932;25.548;2023-10-31T11:48:48;98813.13;;;25.43;100.00
3434;BME280;1730;41.932;25.548;2023-10-31T11:51:15;98811.59;;;25.94;100.00
3434;BME280;1730;41.932;25.548;2023-10-31T11:53:41;98810.38;;;25.75;100.00
3434;BME280;1730;41.932;25.548;2023-10-31T11:56:09;98822.22;;;26.13;100.00
3434;BME280;1730;41.932;25.548;2023-10-31T11:58:35;98797.00;;;26.04;100.00
3434;BME280;1730;41.932;25.548;2023-10-31T12:01:03;98786.00;;;26.09;100.00
3434;BME280;1730;41.932;25.548;2023-10-31T12:03:45;98796.00;;;26.15;100.00
3434;BME280;1730;41.932;25.548;2023-10-31T12:06:13;98794.69;;;26.33;100.00
3434;BME280;1730;41.932;25.548;2023-10-31T12:08:41;98789.06;;;26.70;100.00
3434;BME280;1730;41.932;25.548;2023-10-31T12:11:18;98794.69;;;27.00;100.00
3434;BME280;1730;41.932;25.548;2023-10-31T12:13:57;98783.41;;;27.32;100.00
3434;BME280;1730;41.932;25.548;2023-10-31T12:16:28;98790.31;;;27.14;100.00
3434;BME280;1730;41.932;25.548;2023-10-31T12:18:58;98774.25;;;27.26;100.00
3434;BME280;1730;41.932;25.548;2023-10-31T12:21:53;98764.53;;;27.04;100.00
3434;BME280;1730;41.932;25.548;2023-10-31T12:24:21;98775.09;;;27.37;100.00
3434;BME280;1730;41.932;25.548;2023-10-31T12:26:47;98774.53;;;27.25;100.00
3434;BME280;1730;41.932;25.548;2023-10-31T12:29:17;98734.63;;;26.90;92.83
3434;BME280;1730;41.932;25.548;2023-10-31T12:31:47;98769.31;;;27.49;73.79
3434;BME280;1730;41.932;25.548;2023-10-31T12:34:15;98760.97;;;27.79;67.52
3434;BME280;1730;41.932;25.548;2023-10-31T12:36:40;98770.62;;;27.92;59.95
3434;BME280;1730;41.932;25.548;2023-10-31T12:39:14;98665.97;;;27.23;54.92
3434;BME280;1730;41.932;25.548;2023-10-31T12:41:42;98783.94;;;27.95;52.71
3434;BME280;1730;41.932;25.548;2023-10-31T12:44:09;98675.66;;;27.41;52.09
3434;BME280;1730;41.932;25.548;2023-10-31T12:46:41;98700.28;;;27.72;50.85
3434;BME280;1730;41.932;25.548;2023-10-31T12:49:20;98744.56;;;28.03;50.31
3434;BME280;1730;41.932;25.548;2023-10-31T12:52:03;98712.47;;;27.82;49.01
3434;BME280;1730;41.932;25.548;2023-10-31T12:54:33;98739.84;;;27.98;47.71